Time;durP1;ratioP1;P1;durP2;ratioP2;P2;SDS_P1;SDS_P2;PMS_P1;PMS_P2;Temp;Humidity;BMP_temperature;BMP_pressure;BME280_temperature;BME280_humidity;BME280_pressure;Samples;Min_cycle;Max_cycle;Signal;HPM_P1;HPM_P2
2022/08/06 00:00:28;;;;;;;1.65;0.50;;;;;;;;;;4978856;28;20042;-79
2022/08/06 00:02:53;;;;;;;5.40;0.57;;;;;;;;;;4978544;28;20113;-79
2022/08/06 00:05:19;;;;;;;1.67;0.65;;;;;;;;;;4960435;28;20066;-79
2022/08/06 00:07:44;;;;;;;1.15;0.40;;;;;;;;;;4978244;28;20069;-80
2022/08/06 00:10:10;;;;;;;1.83;0.55;;;;;;;;;;4968584;28;20148;-79
2022/08/06 00:12:35;;;;;;;1.08;0.40;;;;;;;;;;4979712;28;20409;-82
2022/08/06 00:15:03;;;;;;;2.60;0.57;;;;;;;;;;4961410;28;20082;-80
2022/08/06 00:17:28;;;;;;;3.22;0.60;;;;;;;;;;4962850;28;20038;-81
2022/08/06 00:19:54;;;;;;;1.50;0.40;;;;;;;;;;4978016;28;20039;-80
2022/08/06 00:22:19;;;;;;;1.73;0.47;;;;;;;;;;4971810;28;20068;-80
2022/08/06 00:24:47;;;;;;;2.40;0.60;;;;;;;;;;4975341;28;20097;-80
2022/08/06 00:27:12;;;;;;;1.75;0.47;;;;;;;;;;4972264;28;20038;-81
2022/08/06 00:29:38;;;;;;;2.72;0.60;;;;;;;;;;4959936;28;20390;-80
2022/08/06 00:32:04;;;;;;;1.52;0.50;;;;;;;;;;4966930;28;20498;-80
2022/08/06 00:34:29;;;;;;;1.50;0.50;;;;;;;;;;4977006;28;20085;-80
2022/08/06 00:36:54;;;;;;;2.35;0.52;;;;;;;;;;4961746;28;20118;-80
2022/08/06 00:39:20;;;;;;;4.03;0.70;;;;;;;;;;4966647;28;20038;-80
2022/08/06 00:41:45;;;;;;;1.63;0.40;;;;;;;;;;4967401;28;20094;-81
2022/08/06 00:44:10;;;;;;;1.35;0.50;;;;;;;;;;4973979;28;20026;-80
2022/08/06 00:46:36;;;;;;;0.82;0.40;;;;;;;;;;4965687;28;20034;-80
2022/08/06 00:49:01;;;;;;;2.30;0.50;;;;;;;;;;4967280;28;20042;-80
2022/08/06 00:51:29;;;;;;;1.42;0.50;;;;;;;;;;4973865;28;20038;-80
2022/08/06 00:53:55;;;;;;;1.08;0.43;;;;;;;;;;4972750;28;20514;-80
2022/08/06 00:56:20;;;;;;;1.98;0.50;;;;;;;;;;4973971;28;20054;-81
2022/08/06 00:58:46;;;;;;;1.10;0.43;;;;;;;;;;4960706;28;20042;-80
2022/08/06 01:01:11;;;;;;;0.77;0.30;;;;;;;;;;4974192;28;20511;-80
2022/08/06 01:03:37;;;;;;;2.85;0.68;;;;;;;;;;4973849;28;20522;-80
2022/08/06 01:06:03;;;;;;;1.08;0.45;;;;;;;;;;4962373;28;20569;-80
2022/08/06 01:08:29;;;;;;;1.67;0.65;;;;;;;;;;4966584;28;20042;-80
2022/08/06 01:10:54;;;;;;;1.05;0.40;;;;;;;;;;4976575;28;20588;-81
2022/08/06 01:13:19;;;;;;;2.63;0.50;;;;;;;;;;4963158;28;20130;-80
2022/08/06 01:16:13;;;;;;;1.10;0.40;;;;;;;;;;4961956;28;20043;-80
2022/08/06 01:18:55;;;;;;;1.27;0.40;;;;;;;;;;4983237;28;20042;-80
2022/08/06 01:22:05;;;;;;;1.13;0.47;;;;;;;;;;4974295;28;20121;-80
2022/08/06 01:25:04;;;;;;;1.05;0.57;;;;;;;;;;4950512;28;20077;-80
2022/08/06 01:27:44;;;;;;;1.00;0.40;;;;;;;;;;4981594;28;20085;-80
2022/08/06 01:30:17;;;;;;;1.38;0.40;;;;;;;;;;4956750;28;20092;-80
2022/08/06 01:33:01;;;;;;;1.50;0.40;;;;;;;;;;4983032;28;20202;-80
2022/08/06 01:35:35;;;;;;;1.35;0.40;;;;;;;;;;4971167;28;20093;-80
2022/08/06 01:38:07;;;;;;;1.95;0.40;;;;;;;;;;4988916;28;20031;-80
2022/08/06 01:40:34;;;;;;;1.02;0.40;;;;;;;;;;4976457;28;20490;-80
2022/08/06 01:43:01;;;;;;;1.02;0.43;;;;;;;;;;4950903;28;20038;-80
2022/08/06 01:45:29;;;;;;;0.73;0.40;;;;;;;;;;4955473;28;20046;-80
2022/08/06 01:47:56;;;;;;;;;;;;;;;;;;4974404;28;20039;-80
2022/08/06 01:50:27;;;;;;;1.17;0.45;;;;;;;;;;4966343;28;20022;-80
2022/08/06 01:52:54;;;;;;;1.70;0.40;;;;;;;;;;4959489;28;20532;-80
2022/08/06 01:55:20;;;;;;;1.65;0.50;;;;;;;;;;4962529;28;20510;-80
2022/08/06 01:57:51;;;;;;;1.05;0.50;;;;;;;;;;4957484;28;20066;-80
2022/08/06 02:00:17;;;;;;;0.90;0.40;;;;;;;;;;4974081;28;20031;-80
2022/08/06 02:02:43;;;;;;;0.93;0.50;;;;;;;;;;4976484;28;20834;-80
2022/08/06 02:05:13;;;;;;;1.52;0.65;;;;;;;;;;4968968;28;20031;-81
2022/08/06 02:07:40;;;;;;;2.13;0.50;;;;;;;;;;4985000;28;20092;-80
2022/08/06 02:10:08;;;;;;;0.52;0.35;;;;;;;;;;4945148;28;20078;-80
2022/08/06 02:12:34;;;;;;;1.65;0.40;;;;;;;;;;4975853;28;20041;-80
2022/08/06 02:15:07;;;;;;;1.92;0.40;;;;;;;;;;4978917;28;20046;-80
2022/08/06 02:17:39;;;;;;;1.17;0.40;;;;;;;;;;4955003;28;20089;-80
2022/08/06 02:20:07;;;;;;;2.28;0.45;;;;;;;;;;4985941;28;20490;-79
2022/08/06 02:22:36;;;;;;;1.83;0.50;;;;;;;;;;4955940;28;20827;-79
2022/08/06 02:25:04;;;;;;;1.33;0.60;;;;;;;;;;4986106;28;20057;-80
2022/08/06 02:27:31;;;;;;;1.60;0.50;;;;;;;;;;4971029;28;20406;-80
2022/08/06 02:29:58;;;;;;;0.70;0.40;;;;;;;;;;4970976;28;20042;-80
2022/08/06 02:32:23;;;;;;;2.10;0.50;;;;;;;;;;4971781;28;20359;-80
2022/08/06 02:34:48;;;;;;;2.35;0.57;;;;;;;;;;4971282;28;20115;-79
2022/08/06 02:37:19;;;;;;;1.05;0.40;;;;;;;;;;4970610;28;20058;-79
2022/08/06 02:39:49;;;;;;;3.60;0.60;;;;;;;;;;4979179;28;20038;-80
2022/08/06 02:42:38;;;;;;;1.85;0.40;;;;;;;;;;4978327;28;20039;-79
2022/08/06 02:45:06;;;;;;;1.10;0.40;;;;;;;;;;4969431;28;20540;-80
2022/08/06 02:47:52;;;;;;;1.42;0.50;;;;;;;;;;4982731;28;20073;-80
2022/08/06 02:50:21;;;;;;;2.03;0.50;;;;;;;;;;4956302;28;20038;-79
2022/08/06 02:52:55;;;;;;;1.05;0.40;;;;;;;;;;4968548;28;20063;-80
2022/08/06 02:55:24;;;;;;;1.67;0.52;;;;;;;;;;4970337;28;20041;-80
2022/08/06 02:57:54;;;;;;;3.22;0.55;;;;;;;;;;4967652;28;20035;-80
2022/08/06 03:00:21;;;;;;;1.90;0.50;;;;;;;;;;4964812;28;20181;-79
2022/08/06 03:02:48;;;;;;;1.42;0.47;;;;;;;;;;4977538;28;20073;-80
2022/08/06 03:05:16;;;;;;;1.50;0.40;;;;;;;;;;4975353;28;20121;-79
2022/08/06 03:07:42;;;;;;;1.77;0.40;;;;;;;;;;4976812;28;20038;-79
2022/08/06 03:10:08;;;;;;;1.45;0.50;;;;;;;;;;4968011;28;21248;-80
2022/08/06 03:12:35;;;;;;;1.45;0.50;;;;;;;;;;4961910;28;20114;-79
2022/08/06 03:15:02;;;;;;;1.40;0.50;;;;;;;;;;4974330;28;20048;-80
2022/08/06 03:17:28;;;;;;;2.00;0.50;;;;;;;;;;4974768;28;20030;-80
2022/08/06 03:19:54;;;;;;;1.73;0.50;;;;;;;;;;4958723;28;20966;-80
2022/08/06 03:22:19;;;;;;;0.75;0.30;;;;;;;;;;4964142;28;20039;-79
2022/08/06 03:24:48;;;;;;;1.30;0.40;;;;;;;;;;4968718;28;20093;-80
2022/08/06 03:27:15;;;;;;;1.27;0.50;;;;;;;;;;4975333;28;20039;-79
2022/08/06 03:29:41;;;;;;;1.88;0.50;;;;;;;;;;4961484;28;20048;-80
2022/08/06 03:32:08;;;;;;;2.38;0.50;;;;;;;;;;4977406;28;20530;-80
2022/08/06 03:34:34;;;;;;;1.27;0.50;;;;;;;;;;4957701;28;20479;-81
2022/08/06 03:37:01;;;;;;;2.30;0.60;;;;;;;;;;4965102;28;20030;-79
2022/08/06 03:39:27;;;;;;;1.23;0.50;;;;;;;;;;4968460;28;20092;-80
2022/08/06 03:41:53;;;;;;;1.23;0.60;;;;;;;;;;4975978;28;20049;-80
2022/08/06 03:44:18;;;;;;;1.10;0.57;;;;;;;;;;4970642;28;20658;-80
2022/08/06 03:46:50;;;;;;;3.35;0.73;;;;;;;;;;4983476;28;20089;-80
2022/08/06 03:49:26;;;;;;;1.45;0.60;;;;;;;;;;4960170;28;20153;-80
2022/08/06 03:51:53;;;;;;;1.73;0.63;;;;;;;;;;4967196;28;20039;-80
2022/08/06 03:54:24;;;;;;;2.13;0.90;;;;;;;;;;4982678;28;20031;-80
2022/08/06 03:56:54;;;;;;;4.03;0.77;;;;;;;;;;4973980;28;20084;-80
2022/08/06 03:59:20;;;;;;;1.92;0.73;;;;;;;;;;4992401;28;20031;-80
2022/08/06 04:01:46;;;;;;;1.80;0.80;;;;;;;;;;4956618;28;20799;-80
2022/08/06 04:04:12;;;;;;;3.63;1.05;;;;;;;;;;4958669;28;20375;-80
2022/08/06 04:06:38;;;;;;;2.38;0.88;;;;;;;;;;4973269;28;20046;-80
2022/08/06 04:09:05;;;;;;;3.13;0.90;;;;;;;;;;4972472;28;20043;-80
2022/08/06 04:11:31;;;;;;;2.22;0.90;;;;;;;;;;4966974;28;20031;-80
2022/08/06 04:13:58;;;;;;;2.80;1.10;;;;;;;;;;4965196;28;20122;-80
2022/08/06 04:16:23;;;;;;;2.95;1.13;;;;;;;;;;4966729;28;20517;-80
2022/08/06 04:18:51;;;;;;;4.00;1.30;;;;;;;;;;4963613;28;20039;-80
2022/08/06 04:21:20;;;;;;;5.85;1.65;;;;;;;;;;4956517;28;20032;-80
2022/08/06 04:23:45;;;;;;;5.60;1.70;;;;;;;;;;4957785;28;20430;-80
2022/08/06 04:26:13;;;;;;;7.63;2.70;;;;;;;;;;4959286;28;20038;-80
2022/08/06 04:28:41;;;;;;;7.97;3.45;;;;;;;;;;4982814;28;22339;-80
2022/08/06 04:31:07;;;;;;;8.20;2.83;;;;;;;;;;4959794;28;20027;-79
2022/08/06 04:33:34;;;;;;;8.25;3.83;;;;;;;;;;4975612;28;20046;-79
2022/08/06 04:36:04;;;;;;;8.30;3.15;;;;;;;;;;4958686;28;20064;-79
2022/08/06 04:38:31;;;;;;;5.50;2.83;;;;;;;;;;4989180;28;20035;-79
2022/08/06 04:40:57;;;;;;;8.48;2.70;;;;;;;;;;4961790;28;20038;-79
2022/08/06 04:43:22;;;;;;;5.63;2.20;;;;;;;;;;4982932;28;20034;-79
2022/08/06 04:45:50;;;;;;;5.95;2.65;;;;;;;;;;4962519;28;20049;-79
2022/08/06 04:48:16;;;;;;;4.72;2.08;;;;;;;;;;4954675;28;20038;-79
2022/08/06 04:50:42;;;;;;;4.40;2.10;;;;;;;;;;4961636;28;20039;-79
2022/08/06 04:53:13;;;;;;;7.75;2.17;;;;;;;;;;4983256;28;20062;-80
2022/08/06 04:55:39;;;;;;;5.97;2.33;;;;;;;;;;4988789;28;20125;-80
2022/08/06 04:58:09;;;;;;;7.25;3.20;;;;;;;;;;4973026;28;20034;-79
2022/08/06 05:00:37;;;;;;;7.18;2.58;;;;;;;;;;4976485;28;20494;-79
2022/08/06 05:03:03;;;;;;;6.93;2.53;;;;;;;;;;4967464;28;20069;-79
2022/08/06 05:05:30;;;;;;;7.80;3.60;;;;;;;;;;4959152;28;20047;-81
2022/08/06 05:07:57;;;;;;;10.73;4.07;;;;;;;;;;4966776;28;20069;-81
2022/08/06 05:10:26;;;;;;;11.93;5.10;;;;;;;;;;4964497;28;20035;-80
2022/08/06 05:12:55;;;;;;;11.57;5.03;;;;;;;;;;4975519;28;20093;-78
2022/08/06 05:15:33;;;;;;;9.90;4.90;;;;;;;;;;4968777;28;20393;-79
2022/08/06 05:18:07;;;;;;;8.82;4.10;;;;;;;;;;4985576;28;20196;-79
2022/08/06 05:20:34;;;;;;;7.75;3.83;;;;;;;;;;4972551;28;20050;-79
2022/08/06 05:23:03;;;;;;;8.60;3.70;;;;;;;;;;4955488;28;20039;-79
2022/08/06 05:25:28;;;;;;;5.95;2.45;;;;;;;;;;4964699;28;20041;-78
2022/08/06 05:27:54;;;;;;;6.85;2.03;;;;;;;;;;4978873;28;20490;-79
2022/08/06 05:30:20;;;;;;;7.45;2.55;;;;;;;;;;4976738;28;20124;-79
2022/08/06 05:32:48;;;;;;;6.60;2.28;;;;;;;;;;4982869;28;20038;-79
2022/08/06 05:35:14;;;;;;;6.07;2.90;;;;;;;;;;4979447;28;20038;-78
2022/08/06 05:37:40;;;;;;;6.32;2.20;;;;;;;;;;4974083;28;20044;-79
2022/08/06 05:40:06;;;;;;;5.45;1.80;;;;;;;;;;4968839;28;20056;-80
2022/08/06 05:42:32;;;;;;;3.80;1.52;;;;;;;;;;4973423;28;20045;-79
2022/08/06 05:44:57;;;;;;;4.32;1.70;;;;;;;;;;4981361;28;20038;-79
2022/08/06 05:47:27;;;;;;;5.47;1.50;;;;;;;;;;4987187;28;20033;-79
2022/08/06 05:50:06;;;;;;;3.97;1.50;;;;;;;;;;4982190;28;20069;-79
2022/08/06 05:53:06;;;;;;;3.45;1.70;;;;;;;;;;4980577;28;20031;-79
2022/08/06 05:55:56;;;;;;;4.93;2.05;;;;;;;;;;4964080;28;20104;-80
2022/08/06 05:58:31;;;;;;;3.70;1.20;;;;;;;;;;4955827;28;20042;-79
2022/08/06 06:01:01;;;;;;;4.07;1.30;;;;;;;;;;4967833;28;20669;-79
2022/08/06 06:03:27;;;;;;;3.78;0.90;;;;;;;;;;4981378;28;20452;-78
2022/08/06 06:05:54;;;;;;;3.08;0.80;;;;;;;;;;4968629;28;20038;-78
2022/08/06 06:08:21;;;;;;;2.15;0.80;;;;;;;;;;4989241;28;20030;-78
2022/08/06 06:10:47;;;;;;;2.08;1.00;;;;;;;;;;4996155;28;20080;-78
2022/08/06 06:13:12;;;;;;;2.03;0.60;;;;;;;;;;4980893;28;20042;-78
2022/08/06 06:15:42;;;;;;;1.67;0.63;;;;;;;;;;4969451;28;20045;-78
2022/08/06 06:18:39;;;;;;;1.75;0.50;;;;;;;;;;4968828;28;20041;-78
2022/08/06 06:21:16;;;;;;;1.60;0.50;;;;;;;;;;4980284;28;20540;-78
2022/08/06 06:24:06;;;;;;;1.50;0.70;;;;;;;;;;4971474;28;20424;-78
2022/08/06 06:26:42;;;;;;;1.05;0.50;;;;;;;;;;4976569;28;20042;-78
2022/08/06 06:29:33;;;;;;;3.75;0.75;;;;;;;;;;4965494;28;20038;-78
2022/08/06 06:32:18;;;;;;;3.33;0.73;;;;;;;;;;4987204;28;20034;-78
2022/08/06 06:34:46;;;;;;;2.25;0.50;;;;;;;;;;4987738;28;20121;-78
2022/08/06 06:37:23;;;;;;;2.03;0.40;;;;;;;;;;4988291;28;20038;-78
2022/08/06 06:39:57;;;;;;;1.52;0.50;;;;;;;;;;4980912;28;20045;-78
2022/08/06 06:42:28;;;;;;;1.98;0.40;;;;;;;;;;4961201;28;20069;-79
2022/08/06 06:45:32;;;;;;;1.02;0.40;;;;;;;;;;4973203;28;20042;-78
2022/08/06 06:48:21;;;;;;;1.48;0.43;;;;;;;;;;4972465;28;20033;-78
2022/08/06 06:50:51;;;;;;;2.15;0.70;;;;;;;;;;4995524;28;20061;-77
2022/08/06 06:53:17;;;;;;;1.63;0.40;;;;;;;;;;4980200;28;20122;-77
2022/08/06 06:55:48;;;;;;;2.05;0.47;;;;;;;;;;4964543;28;20481;-78
2022/08/06 06:58:27;;;;;;;2.88;0.32;;;;;;;;;;4966700;28;20022;-78
2022/08/06 07:00:54;;;;;;;1.48;0.40;;;;;;;;;;4978970;28;20133;-79
2022/08/06 07:03:20;;;;;;;4.18;0.70;;;;;;;;;;4978981;28;20045;-78
2022/08/06 07:05:47;;;;;;;1.85;0.30;;;;;;;;;;4983222;28;20053;-78
2022/08/06 07:08:15;;;;;;;1.17;0.30;;;;;;;;;;4969080;28;20058;-78
2022/08/06 07:10:41;;;;;;;1.45;0.30;;;;;;;;;;4969879;28;20482;-79
2022/08/06 07:13:10;;;;;;;1.45;0.30;;;;;;;;;;4986696;28;20054;-79
2022/08/06 07:15:36;;;;;;;0.98;0.20;;;;;;;;;;4968804;28;20042;-79
2022/08/06 07:18:03;;;;;;;1.73;0.45;;;;;;;;;;4980425;28;20521;-79
2022/08/06 07:20:30;;;;;;;1.92;0.30;;;;;;;;;;4976587;28;20158;-78
2022/08/06 07:22:58;;;;;;;1.73;0.40;;;;;;;;;;4976153;28;20053;-79
2022/08/06 07:25:27;;;;;;;0.55;0.20;;;;;;;;;;4984855;28;20188;-77
2022/08/06 07:27:52;;;;;;;1.00;0.30;;;;;;;;;;4977635;28;20494;-77
2022/08/06 07:30:24;;;;;;;1.35;0.30;;;;;;;;;;4978316;28;20038;-77
2022/08/06 07:32:50;;;;;;;1.65;0.28;;;;;;;;;;4976047;28;20104;-77
2022/08/06 07:35:17;;;;;;;1.02;0.30;;;;;;;;;;4979885;28;20029;-77
2022/08/06 07:38:03;;;;;;;1.95;0.30;;;;;;;;;;4979565;28;20084;-77
2022/08/06 07:40:36;;;;;;;1.17;0.30;;;;;;;;;;4994710;28;20616;-78
2022/08/06 07:43:11;;;;;;;2.25;0.30;;;;;;;;;;4985275;28;20039;-78
2022/08/06 07:45:37;;;;;;;1.92;0.30;;;;;;;;;;4969854;28;20046;-79
2022/08/06 07:48:07;;;;;;;1.25;0.20;;;;;;;;;;4980827;28;20174;-79
2022/08/06 07:50:32;;;;;;;1.48;0.30;;;;;;;;;;4984524;28;20387;-79
2022/08/06 07:52:58;;;;;;;0.88;0.20;;;;;;;;;;4975209;28;20097;-79
2022/08/06 07:55:28;;;;;;;1.48;0.20;;;;;;;;;;4969851;28;20516;-79
2022/08/06 07:57:55;;;;;;;0.90;0.32;;;;;;;;;;4980644;28;20053;-80
2022/08/06 08:00:22;;;;;;;3.28;0.30;;;;;;;;;;4985189;28;20038;-80
2022/08/06 08:06:17;;;;;;;0.52;0.20;;;;;;;;;;4977051;28;20046;-79
2022/08/06 08:08:18;;;;;;;4.07;0.40;;;;;;;;;;4983286;28;20159;-80
2022/08/06 08:10:44;;;;;;;1.23;0.20;;;;;;;;;;4967668;28;20063;-81
2022/08/06 08:13:10;;;;;;;2.00;0.20;;;;;;;;;;4931267;28;1103085;-80
2022/08/06 08:15:40;;;;;;;0.60;0.20;;;;;;;;;;4968373;28;20543;-80
2022/08/06 08:18:05;;;;;;;1.38;0.20;;;;;;;;;;4979041;28;20516;-80
2022/08/06 08:20:31;;;;;;;2.80;0.43;;;;;;;;;;4979431;28;20042;-80
2022/08/06 08:22:57;;;;;;;1.80;0.30;;;;;;;;;;4979319;28;20217;-80
2022/08/06 08:25:23;;;;;;;1.73;0.20;;;;;;;;;;4962198;28;20034;-80
2022/08/06 08:27:48;;;;;;;1.70;0.30;;;;;;;;;;4993589;28;20045;-80
2022/08/06 08:30:13;;;;;;;1.23;0.30;;;;;;;;;;4979461;28;20038;-80
2022/08/06 08:32:42;;;;;;;1.75;0.30;;;;;;;;;;4970611;28;20452;-80
2022/08/06 08:35:07;;;;;;;0.30;0.10;;;;;;;;;;4976435;28;20038;-80
2022/08/06 08:37:33;;;;;;;2.95;0.82;;;;;;;;;;4959416;28;20038;-80
2022/08/06 08:39:59;;;;;;;2.65;0.50;;;;;;;;;;4959209;28;20495;-80
2022/08/06 08:42:33;;;;;;;2.35;0.50;;;;;;;;;;4967733;28;20475;-80
2022/08/06 08:45:00;;;;;;;2.00;0.30;;;;;;;;;;4965630;28;20038;-80
2022/08/06 08:47:27;;;;;;;0.60;0.20;;;;;;;;;;4970233;28;20533;-80
2022/08/06 08:49:55;;;;;;;1.13;0.20;;;;;;;;;;4962818;28;20085;-80
2022/08/06 08:52:27;;;;;;;0.77;0.20;;;;;;;;;;4961435;28;20041;-80
2022/08/06 08:54:55;;;;;;;1.55;0.20;;;;;;;;;;4969348;28;20073;-80
2022/08/06 08:57:22;;;;;;;1.52;0.40;;;;;;;;;;4963155;28;20525;-80
2022/08/06 08:59:48;;;;;;;1.73;0.20;;;;;;;;;;4971177;28;20505;-81
2022/08/06 09:02:13;;;;;;;0.50;0.17;;;;;;;;;;4965842;28;20035;-81
2022/08/06 09:04:40;;;;;;;2.05;0.32;;;;;;;;;;4965463;28;20042;-80
2022/08/06 09:07:08;;;;;;;0.60;0.10;;;;;;;;;;4972274;28;20035;-81
2022/08/06 09:09:34;;;;;;;0.50;0.13;;;;;;;;;;4969046;28;20091;-81
2022/08/06 09:12:00;;;;;;;1.55;0.30;;;;;;;;;;4969676;28;20046;-81
2022/08/06 09:14:26;;;;;;;0.60;0.20;;;;;;;;;;4968551;28;20485;-80
2022/08/06 09:16:51;;;;;;;8.30;0.63;;;;;;;;;;4956900;28;20042;-80
2022/08/06 09:19:16;;;;;;;1.98;0.30;;;;;;;;;;4984686;28;20057;-81
2022/08/06 09:21:42;;;;;;;0.80;0.20;;;;;;;;;;4979578;28;20099;-80
2022/08/06 09:24:09;;;;;;;1.55;0.30;;;;;;;;;;4983063;28;20495;-81
2022/08/06 09:26:37;;;;;;;0.98;0.40;;;;;;;;;;4981413;28;20508;-81
2022/08/06 09:29:19;;;;;;;0.75;0.10;;;;;;;;;;4981044;28;20482;-81
2022/08/06 09:31:44;;;;;;;1.02;0.20;;;;;;;;;;4990203;28;20034;-81
2022/08/06 09:34:09;;;;;;;1.80;0.20;;;;;;;;;;4971329;28;20390;-81
2022/08/06 09:36:42;;;;;;;1.40;0.30;;;;;;;;;;4963348;28;20149;-81
2022/08/06 09:39:08;;;;;;;0.73;0.13;;;;;;;;;;4973329;28;20092;-80
2022/08/06 09:41:34;;;;;;;0.50;0.10;;;;;;;;;;4971923;28;20030;-85
2022/08/06 09:44:09;;;;;;;2.22;0.30;;;;;;;;;;4978352;28;20504;-85
2022/08/06 09:46:42;;;;;;;0.40;0.10;;;;;;;;;;4971364;28;20038;-85
2022/08/06 09:49:10;;;;;;;0.90;0.25;;;;;;;;;;4970422;28;20051;-89
2022/08/06 09:51:38;;;;;;;2.00;0.55;;;;;;;;;;4956220;28;20038;-86
2022/08/06 09:54:18;;;;;;;;;;;;;;;;;;;;;
2022/08/06 09:56:54;;;;;;;2.45;0.30;;;;;;;;;;4958030;28;20031;-88
2022/08/06 09:59:20;;;;;;;0.85;0.30;;;;;;;;;;4949253;28;20401;-84
2022/08/06 10:01:47;;;;;;;2.42;0.15;;;;;;;;;;4966988;28;20117;-85
2022/08/06 10:04:24;;;;;;;1.65;0.15;;;;;;;;;;4995286;28;20045;-86
2022/08/06 10:06:57;;;;;;;0.73;0.10;;;;;;;;;;4970066;28;20145;-86
2022/08/06 10:09:25;;;;;;;0.80;0.10;;;;;;;;;;4978420;28;20065;-86
2022/08/06 10:11:51;;;;;;;0.88;0.20;;;;;;;;;;4962083;28;20034;-87
2022/08/06 10:14:28;;;;;;;0.32;0.10;;;;;;;;;;4962768;28;20056;-88
2022/08/06 10:17:03;;;;;;;;;;;;;;;;;;4978833;28;20049;-87
2022/08/06 10:19:28;;;;;;;0.57;0.10;;;;;;;;;;4943978;28;19917;-86
2022/08/06 10:21:56;;;;;;;0.60;0.10;;;;;;;;;;4957699;28;20454;-88
2022/08/06 10:24:22;;;;;;;1.15;0.20;;;;;;;;;;4954841;28;20046;-85
2022/08/06 10:26:49;;;;;;;0.47;0.10;;;;;;;;;;4980558;28;20071;-86
2022/08/06 10:29:18;;;;;;;1.70;0.30;;;;;;;;;;4968271;28;20041;-87
2022/08/06 10:31:46;;;;;;;0.70;0.08;;;;;;;;;;4959977;28;20042;-87
2022/08/06 10:34:20;;;;;;;0.55;0.10;;;;;;;;;;4961177;28;20035;-89
2022/08/06 10:37:07;;;;;;;0.68;0.08;;;;;;;;;;4987648;28;20042;-85
2022/08/06 10:39:38;;;;;;;1.10;0.10;;;;;;;;;;4962221;28;20046;-85
2022/08/06 10:42:04;;;;;;;1.00;0.15;;;;;;;;;;4957881;28;20034;-86
2022/08/06 10:44:31;;;;;;;0.55;0.20;;;;;;;;;;4960247;28;20034;-85
2022/08/06 10:46:57;;;;;;;0.88;0.30;;;;;;;;;;4979133;28;20517;-85
2022/08/06 10:49:23;;;;;;;0.82;0.20;;;;;;;;;;4971616;28;20038;-85
2022/08/06 10:51:52;;;;;;;0.60;0.10;;;;;;;;;;4980024;28;20041;-87
2022/08/06 10:54:17;;;;;;;0.88;0.13;;;;;;;;;;4974314;28;20545;-86
2022/08/06 10:56:45;;;;;;;2.42;0.30;;;;;;;;;;4967984;28;20184;-79
2022/08/06 10:59:13;;;;;;;0.52;0.10;;;;;;;;;;4969147;28;20041;-79
2022/08/06 11:02:12;;;;;;;0.50;0.10;;;;;;;;;;4976632;28;20030;-80
2022/08/06 11:04:48;;;;;;;1.45;0.10;;;;;;;;;;4991883;28;20555;-79
2022/08/06 11:07:40;;;;;;;4.60;0.30;;;;;;;;;;4986752;28;20030;-78
2022/08/06 11:10:08;;;;;;;1.73;0.10;;;;;;;;;;4980615;28;20042;-78
2022/08/06 11:12:45;;;;;;;1.20;0.28;;;;;;;;;;4997560;28;20038;-78
2022/08/06 11:15:11;;;;;;;;;;;;;;;;;;4993940;28;20080;-78
2022/08/06 11:17:51;;;;;;;2.45;0.40;;;;;;;;;;4963435;28;19955;-78
2022/08/06 11:20:31;;;;;;;1.20;0.20;;;;;;;;;;4977127;28;20065;-79
2022/08/06 11:22:57;;;;;;;1.63;0.10;;;;;;;;;;4977239;28;20046;-79
2022/08/06 11:25:46;;;;;;;1.00;0.10;;;;;;;;;;4969865;28;20125;-80
2022/08/06 11:28:19;;;;;;;0.60;0.10;;;;;;;;;;4986173;28;20120;-79
2022/08/06 11:30:46;;;;;;;0.70;0.17;;;;;;;;;;4994620;28;20072;-81
2022/08/06 11:33:19;;;;;;;0.52;0.10;;;;;;;;;;4994879;28;20584;-80
2022/08/06 11:35:49;;;;;;;0.52;0.17;;;;;;;;;;4946394;28;20038;-80
2022/08/06 11:38:42;;;;;;;1.10;0.20;;;;;;;;;;4956734;28;20030;-79
2022/08/06 11:41:17;;;;;;;0.60;0.20;;;;;;;;;;4993248;28;20594;-79
2022/08/06 11:43:47;;;;;;;1.30;0.17;;;;;;;;;;4979822;28;20551;-79
2022/08/06 11:46:27;;;;;;;1.27;0.20;;;;;;;;;;4977399;28;20038;-79
2022/08/06 11:48:58;;;;;;;0.38;0.10;;;;;;;;;;4996336;28;20571;-80
2022/08/06 11:51:45;;;;;;;0.55;0.10;;;;;;;;;;4979118;28;20513;-78
2022/08/06 11:54:21;;;;;;;1.13;0.10;;;;;;;;;;4986274;28;20046;-79
2022/08/06 11:57:04;;;;;;;1.27;0.20;;;;;;;;;;4973384;28;20080;-78
2022/08/06 11:59:34;;;;;;;0.90;0.20;;;;;;;;;;4995664;28;20042;-78
2022/08/06 12:02:03;;;;;;;1.30;0.20;;;;;;;;;;4992486;28;20061;-77
2022/08/06 12:04:34;;;;;;;0.95;0.30;;;;;;;;;;4965164;28;20512;-80
2022/08/06 12:07:23;;;;;;;0.38;0.10;;;;;;;;;;4990458;28;20383;-78
2022/08/06 12:10:21;;;;;;;1.75;0.30;;;;;;;;;;4979600;28;20042;-78
2022/08/06 12:12:48;;;;;;;1.58;0.25;;;;;;;;;;4927467;28;20050;-78
2022/08/06 12:15:13;;;;;;;1.65;0.32;;;;;;;;;;4963167;28;20042;-78
2022/08/06 12:17:56;;;;;;;0.75;0.30;;;;;;;;;;4984557;28;25564;-78
2022/08/06 12:20:36;;;;;;;1.55;0.38;;;;;;;;;;4994257;28;20045;-78
2022/08/06 12:23:06;;;;;;;0.65;0.20;;;;;;;;;;4995458;28;20524;-78
2022/08/06 12:25:33;;;;;;;1.02;0.30;;;;;;;;;;4974610;28;20605;-79
2022/08/06 12:28:00;;;;;;;1.20;0.20;;;;;;;;;;4977998;28;20152;-78
2022/08/06 12:30:47;;;;;;;1.33;0.30;;;;;;;;;;4958705;28;20149;-79
2022/08/06 12:33:13;;;;;;;2.13;0.40;;;;;;;;;;4980223;28;20432;-78
2022/08/06 12:36:07;;;;;;;1.75;0.40;;;;;;;;;;4969359;28;20041;-80
2022/08/06 12:38:34;;;;;;;1.38;0.30;;;;;;;;;;4948489;28;20157;-79
2022/08/06 12:41:07;;;;;;;1.30;0.22;;;;;;;;;;4966222;28;20498;-76
2022/08/06 12:43:34;;;;;;;0.35;0.15;;;;;;;;;;4959003;28;20041;-77
2022/08/06 12:46:03;;;;;;;2.37;0.27;;;;;;;;;;4978805;28;20122;-77
2022/08/06 12:48:30;;;;;;;1.20;0.20;;;;;;;;;;4980846;28;20549;-77
2022/08/06 12:51:06;;;;;;;0.60;0.20;;;;;;;;;;4961994;28;20583;-77
2022/08/06 12:53:31;;;;;;;0.75;0.20;;;;;;;;;;4975773;28;20100;-80
2022/08/06 12:55:57;;;;;;;1.23;0.30;;;;;;;;;;4975081;28;20042;-80
2022/08/06 12:58:43;;;;;;;1.15;0.20;;;;;;;;;;4968062;28;20038;-78
2022/08/06 13:01:13;;;;;;;0.90;0.20;;;;;;;;;;4968242;28;20132;-80
2022/08/06 13:03:41;;;;;;;2.22;0.20;;;;;;;;;;4979492;28;20466;-80
2022/08/06 13:06:08;;;;;;;2.25;0.65;;;;;;;;;;4976119;28;20042;-79
2022/08/06 13:08:34;;;;;;;0.30;0.20;;;;;;;;;;4964390;28;20113;-79
2022/08/06 13:11:00;;;;;;;0.50;0.20;;;;;;;;;;4967939;28;20128;-79
2022/08/06 13:13:38;;;;;;;0.90;0.40;;;;;;;;;;4969208;28;20066;-79
2022/08/06 13:16:07;;;;;;;3.05;0.40;;;;;;;;;;4954524;28;20480;-79
2022/08/06 13:18:32;;;;;;;1.52;0.17;;;;;;;;;;4972048;28;20524;-79
2022/08/06 13:20:58;;;;;;;1.38;0.20;;;;;;;;;;4968185;28;20038;-79
2022/08/06 13:23:35;;;;;;;0.60;0.10;;;;;;;;;;4975924;28;20085;-79
2022/08/06 13:26:15;;;;;;;0.87;0.20;;;;;;;;;;4953200;28;20093;-82
2022/08/06 13:28:45;;;;;;;0.93;0.20;;;;;;;;;;4964477;28;20043;-82
2022/08/06 13:31:20;;;;;;;1.38;0.35;;;;;;;;;;4967842;28;20038;-81
2022/08/06 13:34:06;;;;;;;1.10;0.20;;;;;;;;;;4960188;28;20039;-81
2022/08/06 13:36:36;;;;;;;2.97;0.38;;;;;;;;;;4968461;28;20520;-81
2022/08/06 13:39:17;;;;;;;5.20;1.15;;;;;;;;;;4976650;28;20378;-81
2022/08/06 13:41:42;;;;;;;0.85;0.10;;;;;;;;;;4960359;28;20034;-81
2022/08/06 13:44:29;;;;;;;1.05;0.10;;;;;;;;;;4966889;28;20050;-81
2022/08/06 13:46:54;;;;;;;0.80;0.17;;;;;;;;;;4974242;28;20176;-79
2022/08/06 13:49:20;;;;;;;0.30;0.10;;;;;;;;;;4968803;28;20974;-88
2022/08/06 13:51:45;;;;;;;0.82;0.08;;;;;;;;;;4957751;28;20042;-89
2022/08/06 13:54:11;;;;;;;1.52;0.45;;;;;;;;;;4967263;28;20034;-89
2022/08/06 13:56:36;;;;;;;1.02;0.22;;;;;;;;;;4972105;28;20042;-90
2022/08/06 13:59:02;;;;;;;1.85;0.22;;;;;;;;;;4956849;28;20050;-91
2022/08/06 14:01:27;;;;;;;0.20;0.00;;;;;;;;;;4959451;28;20044;-89
2022/08/06 14:04:22;;;;;;;1.15;0.20;;;;;;;;;;4967319;28;20509;-89
2022/08/06 14:07:42;;;;;;;0.52;0.10;;;;;;;;;;4954177;28;20829;-91
2022/08/06 14:10:28;;;;;;;1.17;0.30;;;;;;;;;;4891303;29;20086;-87
2022/08/06 14:13:22;;;;;;;0.60;0.20;;;;;;;;;;4878314;29;20047;-89
2022/08/06 14:19:04;;;;;;;1.27;0.28;;;;;;;;;;4861025;29;21222;-88
2022/08/06 14:22:15;;;;;;;;;;;;;;;;;;;;;
2022/08/06 14:35:04;;;;;;;0.77;0.10;;;;;;;;;;4883261;29;20048;-88
2022/08/06 14:38:00;;;;;;;0.82;0.20;;;;;;;;;;4815762;29;20439;-88
2022/08/06 14:46:06;;;;;;;0.70;0.20;;;;;;;;;;4939142;28;20434;-88
2022/08/06 14:48:32;;;;;;;0.95;0.17;;;;;;;;;;4969124;28;20034;-88
2022/08/06 14:50:58;;;;;;;1.15;0.30;;;;;;;;;;4966967;28;20181;-88
2022/08/06 14:53:23;;;;;;;1.40;0.20;;;;;;;;;;4972907;28;20118;-88
2022/08/06 14:56:26;;;;;;;0.57;0.10;;;;;;;;;;4915421;28;20054;-90
2022/08/06 15:02:51;;;;;;;0.80;0.20;;;;;;;;;;4860212;29;20501;-87
2022/08/06 15:05:48;;;;;;;0.90;0.20;;;;;;;;;;4818874;29;20508;-89
2022/08/06 15:11:31;;;;;;;0.55;0.10;;;;;;;;;;4839674;29;20062;-90
2022/08/06 15:13:57;;;;;;;1.45;0.30;;;;;;;;;;4872193;29;20053;-89
2022/08/06 15:17:05;;;;;;;;;;;;;;;;;;;;;
2022/08/06 15:20:32;;;;;;;0.70;0.22;;;;;;;;;;4850561;29;20045;-88
2022/08/06 15:23:31;;;;;;;;;;;;;;;;;;;;;
2022/08/06 15:26:06;;;;;;;0.95;0.28;;;;;;;;;;4839263;29;20371;-88
2022/08/06 15:28:40;;;;;;;1.35;0.20;;;;;;;;;;4822453;29;20138;-88
2022/08/06 15:31:10;;;;;;;1.20;0.20;;;;;;;;;;4846595;29;21013;-88
2022/08/06 15:33:36;;;;;;;2.35;0.17;;;;;;;;;;4858169;29;20048;-88
2022/08/06 15:36:14;;;;;;;3.30;0.20;;;;;;;;;;4849054;29;20135;-88
2022/08/06 15:38:40;;;;;;;0.22;0.10;;;;;;;;;;4892685;28;20453;-91
2022/08/06 15:41:31;;;;;;;0.85;0.20;;;;;;;;;;4944092;28;20050;-88